createdAt,value
2023-05-09T00:01:36.354Z,100.00
2023-05-09T00:04:03.642Z,100.00
2023-05-09T00:06:30.774Z,100.00
2023-05-09T00:08:57.938Z,100.00
2023-05-09T00:11:25.065Z,100.00
2023-05-09T00:13:52.153Z,100.00
2023-05-09T00:16:20.839Z,100.00
2023-05-09T00:18:47.869Z,100.00
2023-05-09T00:21:14.910Z,100.00
2023-05-09T00:23:41.896Z,100.00
2023-05-09T00:26:10.040Z,100.00
2023-05-09T00:28:37.683Z,100.00
2023-05-09T00:31:05.723Z,100.00
2023-05-09T00:33:32.734Z,100.00
2023-05-09T00:36:00.798Z,100.00
2023-05-09T00:38:28.715Z,100.00
2023-05-09T00:40:55.793Z,100.00
2023-05-09T00:43:22.951Z,100.00
2023-05-09T00:45:50.088Z,100.00
2023-05-09T00:48:17.256Z,100.00
2023-05-09T00:50:44.402Z,100.00
2023-05-09T00:53:11.416Z,100.00
2023-05-09T00:55:38.597Z,100.00
2023-05-09T00:58:05.668Z,100.00
2023-05-09T01:00:32.720Z,100.00
2023-05-09T01:02:59.877Z,100.00
2023-05-09T01:05:46.936Z,100.00
2023-05-09T01:08:21.471Z,100.00
2023-05-09T01:10:58.669Z,100.00
2023-05-09T01:13:33.859Z,100.00
2023-05-09T01:16:19.288Z,100.00
2023-05-09T01:18:50.315Z,100.00
2023-05-09T01:21:24.411Z,100.00
2023-05-09T01:23:59.626Z,100.00
2023-05-09T01:26:29.506Z,100.00
2023-05-09T01:29:26.955Z,100.00
2023-05-09T01:31:54.010Z,100.00
2023-05-09T01:34:20.980Z,100.00
2023-05-09T01:36:47.966Z,100.00
2023-05-09T01:39:15.020Z,100.00
2023-05-09T01:41:42.037Z,100.00
2023-05-09T01:44:11.348Z,100.00
2023-05-09T01:46:38.438Z,100.00
2023-05-09T01:49:06.000Z,100.00
2023-05-09T01:51:33.294Z,100.00
2023-05-09T01:54:00.328Z,100.00
2023-05-09T01:56:27.343Z,100.00
2023-05-09T01:58:55.822Z,100.00
2023-05-09T02:01:22.909Z,100.00
2023-05-09T02:03:52.690Z,100.00
2023-05-09T02:06:21.021Z,100.00
2023-05-09T02:08:48.300Z,100.00
2023-05-09T02:11:15.311Z,100.00
2023-05-09T02:13:42.263Z,100.00
2023-05-09T02:16:10.497Z,100.00
2023-05-09T02:18:37.528Z,100.00
2023-05-09T02:21:04.484Z,100.00
2023-05-09T02:23:31.475Z,100.00
2023-05-09T02:25:58.557Z,100.00
2023-05-09T02:28:26.020Z,100.00
2023-05-09T02:30:53.025Z,100.00
2023-05-09T02:33:20.002Z,100.00
2023-05-09T02:35:47.101Z,100.00
2023-05-09T02:38:14.194Z,100.00
2023-05-09T02:40:42.726Z,100.00
2023-05-09T02:43:09.966Z,100.00
2023-05-09T02:45:37.194Z,100.00
2023-05-09T02:48:06.896Z,100.00
2023-05-09T02:50:35.677Z,100.00
2023-05-09T02:53:02.716Z,100.00
2023-05-09T02:55:29.891Z,100.00
2023-05-09T02:58:09.256Z,100.00
2023-05-09T03:00:39.644Z,100.00
2023-05-09T03:03:06.910Z,100.00
2023-05-09T03:05:34.236Z,100.00
2023-05-09T03:08:01.194Z,100.00
2023-05-09T03:10:28.365Z,100.00
2023-05-09T03:12:56.123Z,100.00
2023-05-09T03:15:23.359Z,100.00
2023-05-09T03:17:50.484Z,100.00
2023-05-09T03:20:18.043Z,100.00
2023-05-09T03:22:45.068Z,100.00
2023-05-09T03:25:12.336Z,100.00
2023-05-09T03:27:39.570Z,100.00
2023-05-09T03:30:09.625Z,100.00
2023-05-09T03:32:36.899Z,100.00
2023-05-09T03:35:04.469Z,100.00
2023-05-09T03:37:32.526Z,100.00
2023-05-09T03:39:59.547Z,100.00
2023-05-09T03:42:26.797Z,100.00
2023-05-09T03:44:56.162Z,100.00
2023-05-09T03:47:23.533Z,100.00
2023-05-09T03:49:50.982Z,100.00
2023-05-09T03:52:20.189Z,100.00
2023-05-09T03:54:47.514Z,100.00
2023-05-09T03:57:15.265Z,100.00
2023-05-09T03:59:42.328Z,100.00
2023-05-09T04:02:09.880Z,100.00
2023-05-09T04:04:37.134Z,100.00
2023-05-09T04:07:04.646Z,100.00
2023-05-09T04:09:31.789Z,100.00
2023-05-09T04:11:59.213Z,100.00
2023-05-09T04:14:26.555Z,100.00
2023-05-09T04:16:53.775Z,100.00
2023-05-09T04:19:20.953Z,100.00
2023-05-09T04:21:48.179Z,100.00
2023-05-09T04:24:16.024Z,99.93
2023-05-09T04:26:44.354Z,98.77
2023-05-09T04:29:13.939Z,97.90
2023-05-09T04:31:41.521Z,96.78
2023-05-09T04:34:09.818Z,94.55
2023-05-09T04:36:37.824Z,94.10
2023-05-09T04:39:08.351Z,94.51
2023-05-09T04:41:38.322Z,93.41
2023-05-09T04:44:06.525Z,93.20
2023-05-09T04:46:34.266Z,92.96
2023-05-09T04:49:01.388Z,92.47
2023-05-09T04:51:28.414Z,92.50
2023-05-09T04:53:55.502Z,92.20
2023-05-09T04:56:26.031Z,89.57
2023-05-09T04:58:53.499Z,88.40
2023-05-09T05:01:20.616Z,87.58
2023-05-09T05:03:47.728Z,86.73
2023-05-09T05:06:14.926Z,85.24
2023-05-09T05:08:42.259Z,83.37
2023-05-09T05:11:11.048Z,83.87
2023-05-09T05:13:38.978Z,82.30
2023-05-09T05:16:06.649Z,82.52
2023-05-09T05:18:33.790Z,82.34
2023-05-09T05:21:01.133Z,81.62
2023-05-09T05:23:28.160Z,81.87
2023-05-09T05:25:55.670Z,79.26
2023-05-09T05:28:23.739Z,76.73
2023-05-09T05:30:51.403Z,75.64
2023-05-09T05:33:19.533Z,75.79
2023-05-09T05:35:47.939Z,74.97
2023-05-09T05:38:16.980Z,74.60
2023-05-09T05:40:45.554Z,73.87
2023-05-09T05:43:14.675Z,73.01
2023-05-09T05:45:43.408Z,73.58
2023-05-09T05:48:16.386Z,73.68
2023-05-09T05:50:43.866Z,73.17
2023-05-09T05:53:15.176Z,72.16
2023-05-09T05:55:42.329Z,71.86
2023-05-09T05:58:10.478Z,72.40
2023-05-09T06:00:37.860Z,71.79
2023-05-09T06:03:05.157Z,72.02
2023-05-09T06:05:44.257Z,71.88
2023-05-09T06:08:11.693Z,70.32
2023-05-09T06:10:38.721Z,70.73
2023-05-09T06:13:05.932Z,70.25
2023-05-09T06:15:33.579Z,68.89
2023-05-09T06:18:00.740Z,68.81
2023-05-09T06:20:28.041Z,67.84
2023-05-09T06:22:55.029Z,66.65
2023-05-09T06:25:22.296Z,66.85
2023-05-09T06:27:50.472Z,67.47
2023-05-09T06:30:25.419Z,68.63
2023-05-09T06:32:53.385Z,68.08
2023-05-09T06:35:21.891Z,65.76
2023-05-09T06:37:51.077Z,64.64
2023-05-09T06:40:19.884Z,62.88
2023-05-09T06:42:47.178Z,63.09
2023-05-09T06:45:15.056Z,63.52
2023-05-09T06:47:43.413Z,62.34
2023-05-09T06:50:10.493Z,63.49
2023-05-09T06:52:37.467Z,64.28
2023-05-09T06:55:04.999Z,65.03
2023-05-09T06:57:32.346Z,64.47
2023-05-09T07:00:02.628Z,64.05
2023-05-09T07:02:30.000Z,64.87
2023-05-09T07:04:57.022Z,65.30
2023-05-09T07:07:24.785Z,64.40
2023-05-09T07:09:55.248Z,65.40
2023-05-09T07:12:29.334Z,66.00
2023-05-09T07:14:56.504Z,66.83
2023-05-09T07:17:26.029Z,68.09
2023-05-09T07:19:53.933Z,66.74
2023-05-09T07:22:21.028Z,66.14
2023-05-09T07:24:48.092Z,65.14
2023-05-09T07:27:15.113Z,64.43
2023-05-09T07:29:42.081Z,66.58
2023-05-09T07:32:09.375Z,66.67
2023-05-09T07:34:36.783Z,64.41
2023-05-09T07:37:03.913Z,64.05
2023-05-09T07:39:30.941Z,63.93
2023-05-09T07:41:57.960Z,62.11
2023-05-09T07:44:25.083Z,62.27
2023-05-09T07:46:52.242Z,61.03
2023-05-09T07:49:19.393Z,61.28
2023-05-09T07:51:46.420Z,59.92
2023-05-09T07:54:13.736Z,55.86
2023-05-09T07:56:40.709Z,54.36
2023-05-09T07:59:07.750Z,53.42
2023-05-09T08:01:34.835Z,50.94
2023-05-09T08:04:01.979Z,52.31
2023-05-09T08:06:29.165Z,53.14
2023-05-09T08:08:56.197Z,47.50
2023-05-09T08:11:23.596Z,46.75
2023-05-09T08:13:50.658Z,47.04
2023-05-09T08:16:17.768Z,46.13
2023-05-09T08:18:44.960Z,44.42
2023-05-09T08:21:12.343Z,42.58
2023-05-09T08:23:40.728Z,40.63
2023-05-09T08:26:07.873Z,39.74
2023-05-09T08:28:34.906Z,41.41
2023-05-09T08:31:02.042Z,41.44
2023-05-09T08:33:29.158Z,42.42
2023-05-09T08:35:56.561Z,41.07
2023-05-09T08:38:24.498Z,42.41
2023-05-09T08:40:51.653Z,42.67
2023-05-09T08:43:19.404Z,42.90
2023-05-09T08:45:50.183Z,43.29
2023-05-09T08:48:17.518Z,43.77
2023-05-09T08:50:44.585Z,43.97
2023-05-09T08:53:11.969Z,43.49
2023-05-09T08:55:39.007Z,42.81
2023-05-09T08:58:06.242Z,43.02
2023-05-09T09:00:33.755Z,43.71
2023-05-09T09:03:02.180Z,43.72
2023-05-09T09:08:01.619Z,44.43
2023-05-09T09:10:29.887Z,44.09
2023-05-09T09:12:57.644Z,44.22
2023-05-09T09:15:26.352Z,44.18
2023-05-09T09:17:53.460Z,43.55
2023-05-09T09:20:20.665Z,44.64
2023-05-09T09:22:48.842Z,44.99
2023-05-09T09:25:16.880Z,45.84
2023-05-09T09:27:43.990Z,45.64
2023-05-09T09:30:13.308Z,44.61
2023-05-09T09:32:40.898Z,45.13
2023-05-09T09:35:09.160Z,45.48
2023-05-09T09:37:36.899Z,45.46
2023-05-09T09:40:05.257Z,45.38
2023-05-09T09:42:42.554Z,45.01
2023-05-09T09:45:12.078Z,46.33
2023-05-09T09:47:39.674Z,48.18
2023-05-09T09:50:14.567Z,50.24
2023-05-09T09:52:51.679Z,49.83
2023-05-09T09:55:19.404Z,50.39
2023-05-09T09:57:48.261Z,50.90
2023-05-09T10:00:16.630Z,51.02
2023-05-09T10:02:54.087Z,51.16
2023-05-09T10:05:24.005Z,51.65
2023-05-09T10:08:00.550Z,52.43
2023-05-09T10:10:28.870Z,52.90
2023-05-09T10:12:57.791Z,52.15
2023-05-09T10:15:25.392Z,51.67
2023-05-09T10:17:56.671Z,52.90
2023-05-09T10:20:24.079Z,51.33
2023-05-09T10:22:57.404Z,50.95
2023-05-09T10:25:44.215Z,51.63
2023-05-09T10:28:13.194Z,51.34
2023-05-09T10:31:03.138Z,49.53
2023-05-09T10:33:49.324Z,50.34
2023-05-09T10:36:18.309Z,50.59
2023-05-09T10:38:45.360Z,50.87
2023-05-09T10:41:12.793Z,51.27
2023-05-09T10:43:39.863Z,52.44
2023-05-09T10:46:07.092Z,52.97
2023-05-09T10:48:34.154Z,52.40
2023-05-09T10:51:01.578Z,51.08
2023-05-09T10:53:48.715Z,51.49
2023-05-09T10:56:29.208Z,49.80
2023-05-09T10:58:56.843Z,49.85
2023-05-09T11:01:31.753Z,49.37
2023-05-09T11:03:59.384Z,48.06
2023-05-09T11:06:42.148Z,48.15
2023-05-09T11:09:33.393Z,47.97
2023-05-09T11:12:08.768Z,47.63
2023-05-09T11:14:35.921Z,47.32
2023-05-09T11:17:06.064Z,46.66
2023-05-09T11:19:37.784Z,45.95
2023-05-09T11:22:34.493Z,45.89
2023-05-09T11:25:30.563Z,44.72
2023-05-09T11:28:04.974Z,43.74
2023-05-09T11:30:40.970Z,42.62
2023-05-09T11:33:24.771Z,44.07
2023-05-09T11:36:18.697Z,42.95
2023-05-09T11:38:46.988Z,43.76
2023-05-09T11:41:14.170Z,44.03
2023-05-09T11:43:42.509Z,44.61
2023-05-09T11:46:09.733Z,45.09
2023-05-09T11:48:40.604Z,44.85
2023-05-09T11:51:07.739Z,44.70
2023-05-09T11:53:34.834Z,45.07
2023-05-09T11:56:05.301Z,45.35
2023-05-09T11:58:32.440Z,45.97
2023-05-09T12:00:59.702Z,46.11
2023-05-09T12:03:27.429Z,46.05
2023-05-09T12:05:55.035Z,46.03
2023-05-09T12:08:23.270Z,46.23
2023-05-09T12:10:50.664Z,45.83
2023-05-09T12:13:19.427Z,45.47
2023-05-09T12:15:46.538Z,45.52
2023-05-09T12:18:13.637Z,45.07
2023-05-09T12:20:51.417Z,44.50
2023-05-09T12:23:19.091Z,44.64
2023-05-09T12:25:56.232Z,45.74
2023-05-09T12:28:23.545Z,45.37
2023-05-09T12:30:51.426Z,44.51
2023-05-09T12:33:18.588Z,43.53
2023-05-09T12:35:49.280Z,43.26
2023-05-09T12:38:22.628Z,44.06
2023-05-09T12:40:50.721Z,45.51
2023-05-09T12:43:17.876Z,47.02
2023-05-09T12:45:44.894Z,47.77
2023-05-09T12:48:14.265Z,47.96
2023-05-09T12:50:41.662Z,47.08
2023-05-09T12:53:08.876Z,46.22
2023-05-09T12:55:41.521Z,45.11
2023-05-09T12:58:08.675Z,43.06
2023-05-09T13:00:45.336Z,42.29
2023-05-09T13:03:30.767Z,42.78
2023-05-09T13:06:01.705Z,43.41
2023-05-09T13:08:29.029Z,44.71
2023-05-09T13:11:07.790Z,45.13
2023-05-09T13:13:41.785Z,45.66
2023-05-09T13:16:10.691Z,46.33
2023-05-09T13:18:38.805Z,46.27
2023-05-09T13:21:07.156Z,46.72
2023-05-09T13:23:34.580Z,46.72
2023-05-09T13:26:01.630Z,46.52
2023-05-09T13:28:28.644Z,46.79
2023-05-09T13:30:55.779Z,46.20
2023-05-09T13:33:26.456Z,46.19
2023-05-09T13:35:54.214Z,45.97
2023-05-09T13:38:21.253Z,45.97
2023-05-09T13:40:48.374Z,45.50
2023-05-09T13:43:15.613Z,46.10
2023-05-09T13:45:42.681Z,46.50
2023-05-09T13:48:09.770Z,46.80
2023-05-09T13:50:36.850Z,47.67
2023-05-09T13:53:03.941Z,48.51
2023-05-09T13:55:31.165Z,49.13
2023-05-09T13:57:58.168Z,50.34
2023-05-09T14:00:26.791Z,50.79
2023-05-09T14:02:59.954Z,50.46
2023-05-09T14:05:27.544Z,50.43
2023-05-09T14:07:55.186Z,49.82
2023-05-09T14:10:22.464Z,48.74
2023-05-09T14:12:49.527Z,48.63
2023-05-09T14:15:16.710Z,49.00
2023-05-09T14:17:43.849Z,49.66
2023-05-09T14:20:11.337Z,49.71
2023-05-09T14:22:38.493Z,49.04
2023-05-09T14:25:06.357Z,48.78
2023-05-09T14:27:36.998Z,49.72
2023-05-09T14:30:04.968Z,50.52
2023-05-09T14:32:32.056Z,50.42
2023-05-09T14:34:59.180Z,50.83
2023-05-09T14:37:27.230Z,50.78
2023-05-09T14:39:54.335Z,50.99
2023-05-09T14:42:21.615Z,51.54
2023-05-09T14:44:48.771Z,51.75
2023-05-09T14:47:17.130Z,51.91
2023-05-09T14:49:44.452Z,52.42
2023-05-09T14:52:11.607Z,52.68
2023-05-09T14:54:38.944Z,53.01
2023-05-09T14:57:07.640Z,53.01
2023-05-09T14:59:36.827Z,53.03
2023-05-09T15:02:04.311Z,53.51
2023-05-09T15:04:31.570Z,53.19
2023-05-09T15:06:59.275Z,53.63
2023-05-09T15:09:26.858Z,54.39
2023-05-09T15:11:55.028Z,54.40
2023-05-09T15:14:22.308Z,54.40
2023-05-09T15:16:52.421Z,54.39
2023-05-09T15:19:19.628Z,54.14
2023-05-09T15:21:46.819Z,53.89
2023-05-09T15:24:13.918Z,54.32
2023-05-09T15:26:40.934Z,54.57
2023-05-09T15:29:08.008Z,54.46
2023-05-09T15:31:35.720Z,54.80
2023-05-09T15:34:02.856Z,54.87
2023-05-09T15:36:30.335Z,55.30
2023-05-09T15:38:57.527Z,54.72
2023-05-09T15:41:24.652Z,54.83
2023-05-09T15:43:52.475Z,55.21
2023-05-09T15:46:19.550Z,55.76
2023-05-09T15:48:46.574Z,55.83
2023-05-09T15:51:14.022Z,56.25
2023-05-09T15:53:41.454Z,56.64
2023-05-09T15:56:08.688Z,57.35
2023-05-09T15:58:36.073Z,57.69
2023-05-09T16:01:06.310Z,58.04
2023-05-09T16:03:34.056Z,58.67
2023-05-09T16:06:01.261Z,59.04
2023-05-09T16:08:28.901Z,59.16
2023-05-09T16:10:55.959Z,59.17
2023-05-09T16:13:23.176Z,59.46
2023-05-09T16:15:51.180Z,59.36
2023-05-09T16:18:18.891Z,59.74
2023-05-09T16:20:46.162Z,59.85
2023-05-09T16:23:13.422Z,60.19
2023-05-09T16:25:40.412Z,60.61
2023-05-09T16:28:09.500Z,60.85
2023-05-09T16:30:37.000Z,60.95
2023-05-09T16:33:04.268Z,61.33
2023-05-09T16:35:31.506Z,61.67
2023-05-09T16:37:58.637Z,61.42
2023-05-09T16:40:25.702Z,61.48
2023-05-09T16:42:53.913Z,61.66
2023-05-09T16:45:21.123Z,61.91
2023-05-09T16:47:48.192Z,62.27
2023-05-09T16:50:15.440Z,61.56
2023-05-09T16:52:42.660Z,61.15
2023-05-09T16:55:09.812Z,61.38
2023-05-09T16:57:37.345Z,61.81
2023-05-09T17:00:08.008Z,62.29
2023-05-09T17:02:36.512Z,62.82
2023-05-09T17:05:05.371Z,63.56
2023-05-09T17:07:32.591Z,64.37
2023-05-09T17:09:59.844Z,65.00
2023-05-09T17:12:27.817Z,66.02
2023-05-09T17:14:54.881Z,67.03
2023-05-09T17:17:21.978Z,67.68
2023-05-09T17:19:49.077Z,68.49
2023-05-09T17:22:16.727Z,69.70
2023-05-09T17:24:44.196Z,70.85
2023-05-09T17:27:11.661Z,72.07
2023-05-09T17:29:38.857Z,73.25
2023-05-09T17:32:06.148Z,73.92
2023-05-09T17:34:33.909Z,74.70
2023-05-09T17:37:02.496Z,75.45
2023-05-09T17:39:29.718Z,75.81
2023-05-09T17:41:56.828Z,76.45
2023-05-09T17:44:24.266Z,77.05
2023-05-09T17:46:51.513Z,77.18
2023-05-09T17:49:19.288Z,77.40
2023-05-09T17:51:46.421Z,77.61
2023-05-09T17:54:13.589Z,77.47
2023-05-09T17:56:40.927Z,77.50
2023-05-09T17:59:08.190Z,77.47
2023-05-09T18:01:35.501Z,77.75
2023-05-09T18:04:03.054Z,77.67
2023-05-09T18:06:30.347Z,78.01
2023-05-09T18:08:57.667Z,78.35
2023-05-09T18:11:25.396Z,78.24
2023-05-09T18:13:52.644Z,78.23
2023-05-09T18:16:19.805Z,79.01
2023-05-09T18:18:47.019Z,79.80
2023-05-09T18:21:14.168Z,79.88
2023-05-09T18:23:41.545Z,79.96
2023-05-09T18:26:08.771Z,80.56
2023-05-09T18:28:41.851Z,81.01
2023-05-09T18:31:13.406Z,81.51
2023-05-09T18:33:41.959Z,81.67
2023-05-09T18:36:10.151Z,82.22
2023-05-09T18:38:39.480Z,82.44
2023-05-09T18:41:13.612Z,82.17
2023-05-09T18:43:46.201Z,82.66
2023-05-09T18:46:21.410Z,82.44
2023-05-09T18:48:51.200Z,82.31
2023-05-09T18:51:18.856Z,82.42
2023-05-09T18:53:47.465Z,83.13
2023-05-09T18:56:14.919Z,83.36
2023-05-09T18:58:46.937Z,83.48
2023-05-09T19:01:13.953Z,83.51
2023-05-09T19:03:45.564Z,83.37
2023-05-09T19:06:13.960Z,83.44
2023-05-09T19:08:43.743Z,83.44
2023-05-09T19:11:14.868Z,83.91
2023-05-09T19:13:48.622Z,84.10
2023-05-09T19:16:16.507Z,84.32
2023-05-09T19:18:45.266Z,84.64
2023-05-09T19:21:15.081Z,85.20
2023-05-09T19:23:43.029Z,85.60
2023-05-09T19:26:10.267Z,86.01
2023-05-09T19:28:37.948Z,86.13
2023-05-09T19:31:05.219Z,86.19
2023-05-09T19:33:33.777Z,86.68
2023-05-09T19:36:01.183Z,87.14
2023-05-09T19:38:28.308Z,87.73
2023-05-09T19:40:55.753Z,87.35
2023-05-09T19:43:22.980Z,87.38
2023-05-09T19:45:50.258Z,87.51
2023-05-09T19:48:17.381Z,87.65
2023-05-09T19:50:45.311Z,87.61
2023-05-09T19:53:12.461Z,88.18
2023-05-09T19:55:39.551Z,88.55
2023-05-09T19:58:06.642Z,88.66
2023-05-09T20:00:36.198Z,88.88
2023-05-09T20:03:04.336Z,89.24
2023-05-09T20:05:44.315Z,89.24
2023-05-09T20:08:12.290Z,89.20
2023-05-09T20:10:39.531Z,89.31
2023-05-09T20:13:07.032Z,89.87
2023-05-09T20:15:34.717Z,90.06
2023-05-09T20:18:03.907Z,90.57
2023-05-09T20:20:33.911Z,90.54
2023-05-09T20:23:02.144Z,90.64
2023-05-09T20:25:29.632Z,91.15
2023-05-09T20:27:56.792Z,91.66
2023-05-09T20:30:23.929Z,91.99
2023-05-09T20:32:51.267Z,92.28
2023-05-09T20:35:18.537Z,92.65
2023-05-09T20:37:48.575Z,92.80
2023-05-09T20:40:20.426Z,92.45
2023-05-09T20:42:51.348Z,92.48
2023-05-09T20:45:18.686Z,92.20
2023-05-09T20:47:45.768Z,92.18
2023-05-09T20:50:12.932Z,92.25
2023-05-09T20:52:40.373Z,92.02
2023-05-09T20:55:07.928Z,92.01
2023-05-09T20:57:34.960Z,91.82
2023-05-09T21:00:02.177Z,91.66
2023-05-09T21:02:29.242Z,91.94
2023-05-09T21:04:57.140Z,92.69
2023-05-09T21:07:24.356Z,92.69
2023-05-09T21:09:51.716Z,92.31
2023-05-09T21:12:18.976Z,91.84
2023-05-09T21:14:46.249Z,91.41
2023-05-09T21:17:13.337Z,91.32
2023-05-09T21:19:40.580Z,91.69
2023-05-09T21:22:07.770Z,91.54
2023-05-09T21:24:34.982Z,90.94
2023-05-09T21:27:02.020Z,90.94
2023-05-09T21:29:29.058Z,90.24
2023-05-09T21:31:56.058Z,89.96
2023-05-09T21:34:23.108Z,89.86
2023-05-09T21:36:50.105Z,89.35
2023-05-09T21:39:17.157Z,89.09
2023-05-09T21:41:44.213Z,89.06
2023-05-09T21:44:14.174Z,89.05
2023-05-09T21:46:41.511Z,89.12
2023-05-09T21:49:08.688Z,89.73
2023-05-09T21:51:35.774Z,89.29
2023-05-09T21:54:03.275Z,89.12
2023-05-09T21:56:30.610Z,89.45
2023-05-09T21:58:57.771Z,89.77
2023-05-09T22:01:24.898Z,89.51
2023-05-09T22:03:52.227Z,89.79
2023-05-09T22:06:19.344Z,90.44
2023-05-09T22:08:46.431Z,90.42
2023-05-09T22:11:14.930Z,90.80
2023-05-09T22:13:42.639Z,91.22
2023-05-09T22:16:09.900Z,91.86
2023-05-09T22:18:37.322Z,91.44
2023-05-09T22:21:04.555Z,90.46
2023-05-09T22:23:31.621Z,89.78
2023-05-09T22:25:58.677Z,89.55
2023-05-09T22:28:28.750Z,89.42
2023-05-09T22:30:55.791Z,89.47
2023-05-09T22:33:22.844Z,89.57
2023-05-09T22:35:49.827Z,89.64
2023-05-09T22:38:16.838Z,89.56
2023-05-09T22:40:43.868Z,89.85
2023-05-09T22:43:11.861Z,90.42
2023-05-09T22:45:39.009Z,90.67
2023-05-09T22:48:06.494Z,91.12
2023-05-09T22:50:33.600Z,92.20
2023-05-09T22:53:00.959Z,92.09
2023-05-09T22:55:28.038Z,91.96
2023-05-09T22:57:55.020Z,92.18
2023-05-09T23:00:22.226Z,92.06
2023-05-09T23:02:49.936Z,91.90
2023-05-09T23:05:17.076Z,91.78
2023-05-09T23:07:44.622Z,92.18
2023-05-09T23:10:11.705Z,92.22
2023-05-09T23:12:38.741Z,92.33
2023-05-09T23:15:07.556Z,92.45
2023-05-09T23:17:34.675Z,92.77
2023-05-09T23:20:01.815Z,92.85
2023-05-09T23:22:28.904Z,92.82
2023-05-09T23:24:55.996Z,93.36
2023-05-09T23:27:23.288Z,93.90
2023-05-09T23:29:50.309Z,94.16
2023-05-09T23:32:17.304Z,94.40
2023-05-09T23:34:44.317Z,94.89
2023-05-09T23:37:12.095Z,95.08
2023-05-09T23:39:39.113Z,94.90
2023-05-09T23:42:06.202Z,94.70
2023-05-09T23:44:33.662Z,94.87
2023-05-09T23:47:02.240Z,94.89
2023-05-09T23:49:29.290Z,94.94
2023-05-09T23:51:56.334Z,95.05
2023-05-09T23:54:24.615Z,94.74
2023-05-09T23:56:51.769Z,95.10
2023-05-09T23:59:18.698Z,94.73
